Wendy Ann — WCZ5857 — position and weather

sailwx.info

Track history (hours):
 
Tides and Currents Weather Stations Pressure Air Temp Water Temp Dewpoint Dewpoint Depression Visibility Wind Speed Wind Dir Waves Ship Positions

Wendy Ann

Owner: OSAGE MARINE SERVICES INC, SAINT LOUIS, MO. More information available from US FCC via Universal Licensing System.

Last reported at 2018-Feb-18 04:49 UTC. Time now 2018-Feb-18 05:22 UTC.
Position N 38°37' W 090°11'.

Type: Tug. MMSI: 338206593.

Date/timePositionNaut miles runAvg speedWind from/ knotsBaromVisibWave heightAir tempDewpointWater temp
2018-Feb-18 04:49N 38°37' W 090°11'0 0.7
2018-Feb-18 04:29N 38°37' W 090°11'017.1
2018-Feb-18 04:28N 38°37' W 090°11'1 1.1
2018-Feb-18 04:00N 38°36' W 090°11'2137.0
2018-Feb-18 04:00N 38°38' W 090°11'2 4.5
2018-Feb-18 03:30N 38°40' W 090°11'4286.4
2018-Feb-18 03:29N 38°36' W 090°11'2 3.9
2018-Feb-18 03:00N 38°38' W 090°11'2243.4
2018-Feb-18 03:00N 38°36' W 090°11'1 1.7
2018-Feb-18 02:30N 38°36' W 090°12'140.0
2018-Feb-18 02:28N 38°37' W 090°11'1 2.2
2018-Feb-18 02:00N 38°36' W 090°11'0 0.9
2018-Feb-18 01:28N 38°36' W 090°11'419.3
2018-Feb-18 01:14N 38°33' W 090°15'1 0.9
2018-Feb-18 00:25N 38°32' W 090°15'0 0.0
2018-Feb-17 23:50N 38°32' W 090°15'0 0.0
2018-Feb-17 23:29N 38°32' W 090°15'3 0.9
2018-Feb-17 19:26N 38°35' W 090°12'1 1.6
2018-Feb-17 18:49N 38°36' W 090°12'2 6.8
2018-Feb-17 18:30N 38°38' W 090°11'1 1.1
2018-Feb-17 18:00N 38°37' W 090°11'1 1.7
2018-Feb-17 17:20N 38°36' W 090°11'0 1.4
2018-Feb-17 17:00N 38°37' W 090°11'3 5.5
2018-Feb-17 16:30N 38°39' W 090°11'0 0.1
2018-Feb-17 15:59N 38°39' W 090°11'3 5.4
2018-Feb-17 15:27N 38°37' W 090°11'1 2.7
2018-Feb-17 15:00N 38°38' W 090°11'3 5.1
2018-Feb-17 14:30N 38°40' W 090°11'2 4.8
2018-Feb-17 14:00N 38°38' W 090°11'2 4.5
2018-Feb-17 13:30N 38°36' W 090°12'4 6.7
2018-Feb-17 12:59N 38°33' W 090°15'1 1.5
2018-Feb-17 12:23N 38°32' W 090°15'4 2.9
2018-Feb-17 11:02N 38°35' W 090°12'1 4.8
2018-Feb-17 10:54N 38°36' W 090°12'0 0.1
2018-Feb-17 09:57N 38°36' W 090°12'3 6.6
2018-Feb-17 09:30N 38°38' W 090°11'222.2
2018-Feb-17 09:25N 38°36' W 090°11'0 1.2
2018-Feb-17 09:06N 38°36' W 090°11'1 8.2
2018-Feb-17 08:59N 38°37' W 090°11'027.9
2018-Feb-17 08:58N 38°37' W 090°11'137.8
2018-Feb-17 08:56N 38°36' W 090°11'0 0.2
2018-Feb-17 08:29N 38°36' W 090°11'0119.9
2018-Feb-17 08:29N 38°36' W 090°11'1 2.6
2018-Feb-17 08:00N 38°35' W 090°12'2 3.5
2018-Feb-17 07:26N 38°37' W 090°11'0 2.7
2018-Feb-17 07:19N 38°36' W 090°11'1 1.4
2018-Feb-17 06:55N 38°37' W 090°11'1 7.8
2018-Feb-17 06:49N 38°36' W 090°11'2 8.0
2018-Feb-17 06:30N 38°39' W 090°11'311.7
2018-Feb-17 06:17N 38°36' W 090°11'1 3.6
2018-Feb-17 05:59N 38°37' W 090°11'031.2
2018-Feb-17 05:58N 38°37' W 090°11'3 6.3
2018-Feb-17 05:30N 38°40' W 090°11'0 0.3
2018-Feb-17 04:59N 38°40' W 090°11'0 0.8
2018-Feb-17 04:30N 38°40' W 090°11'3 9.3
2018-Feb-17 04:09N 38°37' W 090°11'0 0.0
2018-Feb-17 04:00N 38°37' W 090°11'2 3.5
2018-Feb-17 03:28N 38°38' W 090°11'4 7.9
2018-Feb-17 02:59N 38°35' W 090°12'5150.5
2018-Feb-17 02:57N 38°40' W 090°11'414.1
2018-Feb-17 02:40N 38°36' W 090°11'0 0.0
2018-Feb-17 02:30N 38°36' W 090°11'31296.6
2018-Feb-17 02:30N 38°39' W 090°11'2 4.1
2018-Feb-17 02:00N 38°37' W 090°11'1 6.2
2018-Feb-17 01:48N 38°36' W 090°11'0 0.8
2018-Feb-17 01:26N 38°36' W 090°12'4 3.0
2018-Feb-16 23:55N 38°32' W 090°15'5 4.6
2018-Feb-16 22:53N 38°36' W 090°11'0 5.5
2018-Feb-16 22:52N 38°36' W 090°11'1 6.1
2018-Feb-16 22:41N 38°35' W 090°12'0 0.2
2018-Feb-16 22:30N 38°35' W 090°12'247.5
2018-Feb-16 22:27N 38°37' W 090°11'1252.3
2018-Feb-16 22:27N 38°38' W 090°11'2 3.9
2018-Feb-16 22:00N 38°36' W 090°11'122.2
2018-Feb-16 21:58N 38°37' W 090°11'495.5
2018-Feb-16 21:56N 38°40' W 090°11'3 5.4
2018-Feb-16 21:27N 38°38' W 090°11'3859.9
2018-Feb-16 21:27N 38°35' W 090°12'0 0.0
2018-Feb-16 21:00N 38°35' W 090°12'0 0.5
2018-Feb-16 20:49N 38°35' W 090°12'0 1.1
2018-Feb-16 20:25N 38°35' W 090°12'0 4.5
2018-Feb-16 20:20N 38°35' W 090°12'0 0.2
2018-Feb-16 19:58N 38°35' W 090°12'3 5.8
2018-Feb-16 19:28N 38°38' W 090°11'3 6.8
2018-Feb-16 19:00N 38°41' W 090°11'3 2.9
2018-Feb-16 18:09N 38°38' W 090°11'1 5.6
2018-Feb-16 18:00N 38°37' W 090°11'353.1
2018-Feb-16 17:56N 38°35' W 090°13'1 1.9
2018-Feb-16 17:27N 38°35' W 090°12'1 3.2
2018-Feb-16 17:07N 38°34' W 090°13'0 0.1
2018-Feb-16 16:48N 38°34' W 090°13'254.7
2018-Feb-16 16:46N 38°36' W 090°11'1 5.0
2018-Feb-16 16:30N 38°37' W 090°11'1 1.0
2018-Feb-16 15:17N 38°36' W 090°11'1 2.1
2018-Feb-16 14:59N 38°36' W 090°12'2152.5
2018-Feb-16 14:59N 38°35' W 090°13'1 1.4
2018-Feb-16 14:33N 38°35' W 090°12'0 0.0
2018-Feb-16 14:30N 38°35' W 090°12'0 0.2
2018-Feb-16 14:19N 38°35' W 090°12'0 0.4
2018-Feb-16 14:00N 38°35' W 090°12'314.9
2018-Feb-16 13:50N 38°37' W 090°11'1 1.8
2018-Feb-16 13:30N 38°38' W 090°11'3 6.1
2018-Feb-16 12:59N 38°35' W 090°12'0 0.1
2018-Feb-16 11:23N 38°35' W 090°12'1 4.5
2018-Feb-16 11:06N 38°34' W 090°14'113.2
2018-Feb-16 11:00N 38°35' W 090°12'1 2.4
2018-Feb-16 10:37N 38°36' W 090°12'213.4
2018-Feb-16 10:30N 38°37' W 090°11'014.6
2018-Feb-16 10:28N 38°37' W 090°11'2 3.7
2018-Feb-16 10:00N 38°39' W 090°11'2520.4
2018-Feb-16 10:00N 38°41' W 090°11'512.8
2018-Feb-16 09:38N 38°36' W 090°11'436.6
2018-Feb-16 09:30N 38°40' W 090°11'420.5
2018-Feb-16 09:18N 38°36' W 090°11'0 0.6
2018-Feb-16 09:00N 38°36' W 090°11'1303.6
2018-Feb-16 09:00N 38°37' W 090°11'2 9.4
2018-Feb-16 08:45N 38°35' W 090°12'1 4.5
2018-Feb-16 08:30N 38°36' W 090°11'0 6.3
2018-Feb-16 08:27N 38°36' W 090°12'0 2.2
2018-Feb-16 08:13N 38°36' W 090°11'1 5.3
2018-Feb-16 08:00N 38°35' W 090°12'2 3.5
2018-Feb-16 07:32N 38°37' W 090°11'010.7
2018-Feb-16 07:29N 38°36' W 090°11'113.3
2018-Feb-16 07:26N 38°37' W 090°11'236.6
2018-Feb-16 07:22N 38°35' W 090°12'513.1
2018-Feb-16 07:00N 38°40' W 090°11'0 9.3
2018-Feb-16 06:59N 38°40' W 090°11'3107.1
2018-Feb-16 06:57N 38°36' W 090°11'4 8.7
2018-Feb-16 06:30N 38°40' W 090°11'237.5
2018-Feb-16 06:28N 38°39' W 090°11'2184.0
2018-Feb-16 06:27N 38°41' W 090°12'1 2.1
2018-Feb-16 06:00N 38°40' W 090°11'2107.0
2018-Feb-16 05:59N 38°38' W 090°11'31398.0
2018-Feb-16 05:59N 38°41' W 090°12'1 2.2
2018-Feb-16 05:30N 38°40' W 090°11'195.6
2018-Feb-16 05:30N 38°39' W 090°11'338.7
2018-Feb-16 05:25N 38°36' W 090°11'3 8.2
2018-Feb-16 05:00N 38°39' W 090°11'2276.5
2018-Feb-16 05:00N 38°37' W 090°11'1 6.8
2018-Feb-16 04:53N 38°37' W 090°11'0 1.0
2018-Feb-16 04:30N 38°36' W 090°11'013.7
2018-Feb-16 04:28N 38°37' W 090°11'1 1.5
2018-Feb-16 04:00N 38°37' W 090°11'132.0
2018-Feb-16 03:59N 38°37' W 090°11'0 0.1
2018-Feb-16 03:30N 38°37' W 090°11'154.4
2018-Feb-16 03:29N 38°36' W 090°11'0 0.1
2018-Feb-16 03:00N 38°36' W 090°11'2 9.5
2018-Feb-16 02:48N 38°35' W 090°13'2 7.7
2018-Feb-16 02:30N 38°36' W 090°11'0 1.0
2018-Feb-16 02:20N 38°36' W 090°11'2 4.8
2018-Feb-16 01:59N 38°38' W 090°11'4 1.1
2018-Feb-15 22:21N 38°34' W 090°13'1 8.5
2018-Feb-15 22:15N 38°35' W 090°12'0 0.3
2018-Feb-15 21:59N 38°35' W 090°12'0 1.2
2018-Feb-15 21:56N 38°35' W 090°12'1 2.3
2018-Feb-15 21:30N 38°36' W 090°12'4 7.8
2018-Feb-15 21:00N 38°40' W 090°11'4361.6
2018-Feb-15 20:59N 38°36' W 090°12'5 8.7
2018-Feb-15 20:26N 38°41' W 090°11'3 6.1
2018-Feb-15 20:00N 38°38' W 090°11'4 5.1
2018-Feb-15 19:14N 38°35' W 090°13'0 0.3
2018-Feb-15 18:54N 38°35' W 090°13'284.0
2018-Feb-15 18:53N 38°36' W 090°11'3 7.3
2018-Feb-15 18:30N 38°39' W 090°11'1 1.8
2018-Feb-15 18:00N 38°40' W 090°11'543.7
2018-Feb-15 17:53N 38°35' W 090°13'3 7.0
2018-Feb-15 17:25N 38°38' W 090°11'374.9
2018-Feb-15 17:22N 38°35' W 090°13'0 1.0
2018-Feb-15 16:55N 38°35' W 090°13'0 0.8
2018-Feb-15 16:37N 38°35' W 090°12'212.2
2018-Feb-15 16:29N 38°37' W 090°11'0 4.6
2018-Feb-15 16:24N 38°36' W 090°11'0 5.6
2018-Feb-15 16:20N 38°37' W 090°11'3 8.6
2018-Feb-15 16:00N 38°39' W 090°11'3491.5
2018-Feb-15 16:00N 38°37' W 090°11'4 8.9
2018-Feb-15 15:30N 38°41' W 090°12'5349.7
2018-Feb-15 15:30N 38°36' W 090°11'140.1
2018-Feb-15 15:29N 38°37' W 090°11'2 5.1
2018-Feb-15 14:59N 38°39' W 090°11'4854.1
2018-Feb-15 14:59N 38°35' W 090°12'3765.8
2018-Feb-15 14:59N 38°39' W 090°11'1 2.1
2018-Feb-15 14:29N 38°38' W 090°11'1 2.5
2018-Feb-15 13:59N 38°36' W 090°11'2108.0
2018-Feb-15 13:58N 38°35' W 090°13'3 2.0
2018-Feb-15 12:30N 38°32' W 090°15'4 0.3
2018-Feb-14 22:44N 38°35' W 090°12'1 7.8
2018-Feb-14 22:38N 38°35' W 090°13'1 4.0
2018-Feb-14 22:24N 38°35' W 090°12'1 6.4
2018-Feb-14 22:16N 38°36' W 090°11'0 1.1
2018-Feb-14 22:06N 38°36' W 090°12'0 1.0
2018-Feb-14 22:03N 38°36' W 090°11'0 4.6
2018-Feb-14 22:00N 38°36' W 090°11'0336.6
2018-Feb-14 22:00N 38°36' W 090°11'13805.3
2018-Feb-14 22:00N 38°37' W 090°11'033.9
2018-Feb-14 22:00N 38°37' W 090°11'2 2.9
2018-Feb-14 21:29N 38°36' W 090°11'175.5
2018-Feb-14 21:28N 38°35' W 090°12'1 3.0
2018-Feb-14 21:05N 38°36' W 090°11'0 1.4
2018-Feb-14 20:52N 38°36' W 090°11'0 1.9
2018-Feb-14 20:50N 38°36' W 090°11'214.9
2018-Feb-14 20:41N 38°34' W 090°13'0 0.7
2018-Feb-14 20:29N 38°34' W 090°13'1 4.7
2018-Feb-14 20:18N 38°35' W 090°12'1 4.0
2018-Feb-14 20:00N 38°36' W 090°11'164.0
2018-Feb-14 19:59N 38°35' W 090°12'2 3.7
2018-Feb-14 19:30N 38°37' W 090°11'1 1.6
2018-Feb-14 18:54N 38°37' W 090°11'3 7.9
2018-Feb-14 18:32N 38°35' W 090°13'210.1
2018-Feb-14 18:22N 38°36' W 090°11'0 2.0
2018-Feb-14 18:12N 38°37' W 090°11'0 0.3
2018-Feb-14 18:00N 38°37' W 090°11'1 2.0
2018-Feb-14 17:36N 38°36' W 090°12'1 7.8
2018-Feb-14 17:27N 38°37' W 090°11'0 5.3
2018-Feb-14 17:24N 38°37' W 090°11'1 3.5
2018-Feb-14 17:00N 38°39' W 090°11'2382.3
2018-Feb-14 17:00N 38°37' W 090°11'349.6
2018-Feb-14 16:56N 38°34' W 090°14'3 5.5
2018-Feb-14 16:29N 38°36' W 090°11'256.6
2018-Feb-14 16:26N 38°34' W 090°13'0 0.9
2018-Feb-14 15:59N 38°35' W 090°13'312.7
2018-Feb-14 15:46N 38°37' W 090°11'0 0.5
2018-Feb-14 15:30N 38°37' W 090°11'3219.9
2018-Feb-14 15:29N 38°34' W 090°13'0 0.0
2018-Feb-14 14:58N 38°34' W 090°13'0 0.2
2018-Feb-14 14:15N 38°35' W 090°13'2 0.4
2018-Feb-14 09:37N 38°36' W 090°12'1 9.9
2018-Feb-14 09:30N 38°37' W 090°11'1 1.2
2018-Feb-14 08:56N 38°36' W 090°11'1 3.3
2018-Feb-14 08:47N 38°37' W 090°11'0 0.3
2018-Feb-14 08:30N 38°37' W 090°11'0 1.2
2018-Feb-14 08:25N 38°37' W 090°11'0 0.2
2018-Feb-14 08:00N 38°37' W 090°11'0 0.3
2018-Feb-14 07:46N 38°37' W 090°11'0 0.9
2018-Feb-14 07:37N 38°37' W 090°11'0 2.9
2018-Feb-14 07:30N 38°37' W 090°11'0 1.9
2018-Feb-14 07:21N 38°37' W 090°11'0 2.3
2018-Feb-14 07:13N 38°37' W 090°11'0 0.5
2018-Feb-14 06:58N 38°37' W 090°11'214.6
2018-Feb-14 06:50N 38°35' W 090°12'240.7
2018-Feb-14 06:47N 38°37' W 090°11'0 0.0
2018-Feb-14 06:30N 38°37' W 090°11'010.4
2018-Feb-14 06:30N 38°37' W 090°11'349.5
2018-Feb-14 06:26N 38°35' W 090°13'0 0.6
2018-Feb-14 05:56N 38°34' W 090°13'1 2.3
2018-Feb-14 05:19N 38°35' W 090°12'2 4.1
2018-Feb-14 04:52N 38°37' W 090°11'013.8
2018-Feb-14 04:50N 38°36' W 090°11'1 1.8
2018-Feb-14 04:30N 38°37' W 090°11'2113.6
2018-Feb-14 04:29N 38°39' W 090°11'1 2.0
2018-Feb-14 04:00N 38°40' W 090°11'3342.0
2018-Feb-14 04:00N 38°37' W 090°11'213.2
2018-Feb-14 03:52N 38°35' W 090°12'2 4.7
2018-Feb-14 03:29N 38°37' W 090°11'115.5
2018-Feb-14 03:26N 38°38' W 090°11'3 5.1
2018-Feb-14 02:52N 38°35' W 090°12'2146.5
2018-Feb-14 02:51N 38°37' W 090°11'0 1.3
2018-Feb-14 02:48N 38°37' W 090°11'1 1.2
2018-Feb-14 02:20N 38°36' W 090°11'1 2.6
2018-Feb-14 02:00N 38°37' W 090°11'1 2.6
2018-Feb-14 01:30N 38°36' W 090°11'1 0.2
2018-Feb-13 22:29N 38°36' W 090°11'1 1.6
2018-Feb-13 22:02N 38°37' W 090°11'0 7.2
2018-Feb-13 22:00N 38°37' W 090°11'1 8.4
2018-Feb-13 21:54N 38°36' W 090°11'2 5.7
2018-Feb-13 21:30N 38°35' W 090°13'2 2.9
2018-Feb-13 20:52N 38°36' W 090°12'152.4
2018-Feb-13 20:51N 38°37' W 090°11'2 5.1
2018-Feb-13 20:22N 38°35' W 090°12'3 6.5
2018-Feb-13 19:54N 38°38' W 090°11'2285.8
2018-Feb-13 19:54N 38°36' W 090°11'1 1.7
2018-Feb-13 19:11N 38°37' W 090°11'1 3.3
2018-Feb-13 19:00N 38°37' W 090°11'014.6
2018-Feb-13 18:59N 38°37' W 090°11'1 1.4
2018-Feb-13 18:33N 38°36' W 090°11'441.5
2018-Feb-13 18:27N 38°40' W 090°11'4287.9
2018-Feb-13 18:26N 38°36' W 090°11'3 7.4
2018-Feb-13 18:00N 38°39' W 090°11'413.5
2018-Feb-13 17:41N 38°35' W 090°12'0 1.1
2018-Feb-13 17:31N 38°35' W 090°12'0 2.3
2018-Feb-13 17:30N 38°35' W 090°12'2877.6
2018-Feb-13 17:30N 38°37' W 090°11'21636.4
2018-Feb-13 17:30N 38°35' W 090°12'312.2
2018-Feb-13 17:16N 38°38' W 090°11'2 7.9
2018-Feb-13 17:00N 38°36' W 090°12'157.3
2018-Feb-13 16:59N 38°36' W 090°11'2271.7
2018-Feb-13 16:59N 38°39' W 090°11'1 2.2
2018-Feb-13 16:28N 38°37' W 090°11'3 7.9
2018-Feb-13 16:03N 38°35' W 090°13'241.8
2018-Feb-13 16:00N 38°36' W 090°12'218.3
2018-Feb-13 15:54N 38°35' W 090°13'0 0.7
2018-Feb-13 15:44N 38°34' W 090°13'0 0.2
2018-Feb-13 15:29N 38°35' W 090°13'114.4
2018-Feb-13 15:23N 38°36' W 090°12'0 1.3
2018-Feb-13 15:07N 38°36' W 090°12'1 6.3
2018-Feb-13 14:57N 38°35' W 090°12'211.8
2018-Feb-13 14:46N 38°37' W 090°11'111.7
2018-Feb-13 14:41N 38°36' W 090°11'1 5.7
2018-Feb-13 14:30N 38°37' W 090°11'0260.4
2018-Feb-13 14:30N 38°37' W 090°11'1372.0
2018-Feb-13 14:30N 38°36' W 090°11'3 5.3
2018-Feb-13 14:01N 38°39' W 090°11'232.9
2018-Feb-13 13:56N 38°36' W 090°11'118.5
2018-Feb-13 13:54N 38°37' W 090°11'0 2.6
2018-Feb-13 13:48N 38°37' W 090°11'1 1.5
2018-Feb-13 13:22N 38°36' W 090°12'1 0.5
2018-Feb-13 11:03N 38°35' W 090°12'0 0.0
2018-Feb-13 10:59N 38°35' W 090°12'1 7.1
2018-Feb-13 10:47N 38°36' W 090°11'1 4.1
2018-Feb-13 10:25N 38°35' W 090°12'312.6
2018-Feb-13 10:13N 38°37' W 090°11'1 5.7
2018-Feb-13 10:00N 38°39' W 090°11'445.8
2018-Feb-13 09:55N 38°35' W 090°12'112.3
2018-Feb-13 09:48N 38°36' W 090°11'1 7.8
2018-Feb-13 09:40N 38°35' W 090°12'0 2.2
2018-Feb-13 09:30N 38°35' W 090°12'22660.0
2018-Feb-13 09:30N 38°37' W 090°11'241.3
2018-Feb-13 09:28N 38°39' W 090°11'245.0
2018-Feb-13 09:26N 38°37' W 090°11'1 1.3
2018-Feb-13 09:00N 38°37' W 090°11'0 5.0
2018-Feb-13 08:57N 38°37' W 090°11'264.9
2018-Feb-13 08:55N 38°35' W 090°12'0 0.1
2018-Feb-13 08:29N 38°35' W 090°12'2 4.0
2018-Feb-13 08:06N 38°36' W 090°11'0 3.4
2018-Feb-13 07:58N 38°36' W 090°12'1 2.9
2018-Feb-13 07:32N 38°37' W 090°11'0 9.3
2018-Feb-13 07:30N 38°37' W 090°11'1250.5
2018-Feb-13 07:30N 38°39' W 090°11'511.2
2018-Feb-13 07:05N 38°34' W 090°13'453.3
2018-Feb-13 07:00N 38°38' W 090°11'499.3
2018-Feb-13 06:58N 38°34' W 090°13'3114.2
2018-Feb-13 06:56N 38°37' W 090°11'0 0.4
2018-Feb-13 06:30N 38°37' W 090°11'132.7
2018-Feb-13 06:28N 38°36' W 090°11'1 2.3
2018-Feb-13 06:00N 38°37' W 090°11'0 0.3
2018-Feb-13 05:41N 38°37' W 090°11'211.9
2018-Feb-13 05:30N 38°39' W 090°11'443.6
2018-Feb-13 05:24N 38°35' W 090°12'513.3
2018-Feb-13 05:00N 38°40' W 090°11'521.4
2018-Feb-13 04:48N 38°36' W 090°12'3 9.2
2018-Feb-13 04:29N 38°39' W 090°11'114.0
2018-Feb-13 04:25N 38°38' W 090°11'0 0.3
2018-Feb-13 04:00N 38°37' W 090°11'1 1.5
2018-Feb-13 03:36N 38°37' W 090°11'0 1.5
2018-Feb-13 03:30N 38°37' W 090°11'148.3
2018-Feb-13 03:29N 38°36' W 090°11'1 1.7
2018-Feb-13 03:00N 38°37' W 090°11'295.7
2018-Feb-13 02:58N 38°35' W 090°12'2 5.2
2018-Feb-13 02:30N 38°37' W 090°11'2 6.5
2018-Feb-13 02:07N 38°35' W 090°12'327.8
2018-Feb-13 02:00N 38°38' W 090°11'215.8
2018-Feb-13 01:52N 38°36' W 090°11'0 0.6
2018-Feb-13 01:40N 38°36' W 090°11'0 0.7
2018-Feb-13 01:28N 38°36' W 090°11'111.9
2018-Feb-13 01:26N 38°36' W 090°12'1 0.3
2018-Feb-12 20:40N 38°37' W 090°11'181.2
2018-Feb-12 20:39N 38°36' W 090°11'0 0.1
2018-Feb-12 20:30N 38°36' W 090°11'065.3
2018-Feb-12 20:30N 38°36' W 090°11'282.8
2018-Feb-12 20:28N 38°39' W 090°11'410.6
2018-Feb-12 20:07N 38°35' W 090°12'222.6
2018-Feb-12 20:01N 38°37' W 090°11'2235.6
2018-Feb-12 20:00N 38°35' W 090°12'212.6
2018-Feb-12 19:52N 38°36' W 090°11'1 1.6
2018-Feb-12 19:31N 38°37' W 090°11'1 1.5
2018-Feb-12 19:06N 38°36' W 090°11'0 4.5
2018-Feb-12 19:00N 38°37' W 090°11'117.7
2018-Feb-12 18:58N 38°36' W 090°11'0 0.9
2018-Feb-12 18:30N 38°36' W 090°12'2 3.2
2018-Feb-12 17:59N 38°35' W 090°13'1150.5
2018-Feb-12 17:59N 38°35' W 090°12'1 2.3
2018-Feb-12 17:30N 38°36' W 090°11'111.1
2018-Feb-12 17:24N 38°37' W 090°11'1 1.9
2018-Feb-12 16:58N 38°36' W 090°11'1145.5
2018-Feb-12 16:57N 38°37' W 090°11'21049.8
2018-Feb-12 16:57N 38°35' W 090°12'3 7.8
2018-Feb-12 16:30N 38°39' W 090°11'545.5
2018-Feb-12 16:24N 38°34' W 090°13'3 7.8
2018-Feb-12 16:00N 38°37' W 090°11'1 0.8
2018-Feb-12 15:18N 38°36' W 090°11'0 4.8
2018-Feb-12 15:14N 38°36' W 090°11'0 0.9
2018-Feb-12 14:43N 38°36' W 090°12'1 4.8
2018-Feb-12 14:31N 38°35' W 090°12'1 2.6
2018-Feb-12 14:01N 38°36' W 090°11'5 1.1
2018-Feb-12 09:45N 38°32' W 090°15'4 8.5
2018-Feb-12 09:16N 38°36' W 090°12'2 8.9
2018-Feb-12 09:01N 38°38' W 090°11'0 8.3
2018-Feb-12 08:59N 38°38' W 090°11'2 8.7
2018-Feb-12 08:49N 38°40' W 090°11'0 0.7
2018-Feb-12 08:30N 38°40' W 090°11'028.6
2018-Feb-12 08:30N 38°39' W 090°11'3 5.4
2018-Feb-12 07:59N 38°37' W 090°11'1 2.1
2018-Feb-12 07:26N 38°36' W 090°12'114.0
2018-Feb-12 07:22N 38°37' W 090°11'018.5
2018-Feb-12 07:20N 38°36' W 090°11'0 0.3
2018-Feb-12 07:00N 38°36' W 090°11'157.1
2018-Feb-12 06:59N 38°36' W 090°12'1 0.6
2018-Feb-12 05:59N 38°36' W 090°11'0 0.3
2018-Feb-12 05:24N 38°36' W 090°11'0 0.5
2018-Feb-12 04:54N 38°36' W 090°12'0 0.3
2018-Feb-12 04:28N 38°36' W 090°11'0 0.0
2018-Feb-12 03:16N 38°36' W 090°11'4122.9
2018-Feb-12 03:13N 38°33' W 090°15'419.3
2018-Feb-12 03:00N 38°36' W 090°11'1 3.8
2018-Feb-12 02:39N 38°35' W 090°13'1 5.3
2018-Feb-12 02:30N 38°36' W 090°12'0 1.3
2018-Feb-12 02:09N 38°36' W 090°11'1 2.3
2018-Feb-12 01:51N 38°37' W 090°11'2 4.5
2018-Feb-12 01:30N 38°35' W 090°12'3 0.9
2018-Feb-11 22:09N 38°33' W 090°15'2 4.7
2018-Feb-11 21:48N 38°34' W 090°14'214.2
2018-Feb-11 21:40N 38°36' W 090°12'0 1.1
2018-Feb-11 21:29N 38°36' W 090°12'1649.1
2018-Feb-11 21:29N 38°35' W 090°13'2115.1
2018-Feb-11 21:28N 38°37' W 090°11'0 1.0
2018-Feb-11 21:00N 38°36' W 090°11'0 2.9
2018-Feb-11 20:51N 38°37' W 090°11'0 2.6
2018-Feb-11 20:47N 38°37' W 090°11'1 2.0
2018-Feb-11 20:30N 38°36' W 090°11'049.9
2018-Feb-11 20:30N 38°36' W 090°11'0 0.2
2018-Feb-11 20:24N 38°36' W 090°11'0 0.2
2018-Feb-11 20:01N 38°36' W 090°11'014.8
2018-Feb-11 20:00N 38°36' W 090°11'0 6.5
2018-Feb-11 20:00N 38°36' W 090°11'0 0.2
2018-Feb-11 19:30N 38°36' W 090°11'0 9.1
2018-Feb-11 19:30N 38°36' W 090°11'1228.0
2018-Feb-11 19:30N 38°35' W 090°13'2 2.2
2018-Feb-11 18:39N 38°36' W 090°11'0 2.3
2018-Feb-11 18:27N 38°37' W 090°11'3 1.0
2018-Feb-11 15:19N 38°34' W 090°13'1 3.4
2018-Feb-11 15:00N 38°35' W 090°12'1 2.2
2018-Feb-11 14:28N 38°36' W 090°11'1 2.2
2018-Feb-11 14:00N 38°37' W 090°11'1 2.8
2018-Feb-11 13:29N 38°36' W 090°12'1 0.1
2018-Feb-11 09:40N 38°35' W 090°12'0 1.9
2018-Feb-11 09:40N 38°35' W 090°12'0 0.9
2018-Feb-11 09:30N 38°35' W 090°12'014.5
2018-Feb-11 09:30N 38°35' W 090°12'0 0.3
2018-Feb-11 09:00N 38°35' W 090°12'0 0.2
2018-Feb-11 08:50N 38°35' W 090°12'0 0.3
2018-Feb-11 08:30N 38°35' W 090°12'234.5
2018-Feb-11 08:27N 38°37' W 090°11'2 4.8
2018-Feb-11 08:04N 38°35' W 090°12'0 0.4
2018-Feb-11 08:00N 38°35' W 090°12'0 2.2
2018-Feb-11 07:58N 38°35' W 090°12'0 0.2
2018-Feb-11 07:30N 38°35' W 090°12'0 0.6
2018-Feb-11 07:13N 38°35' W 090°12'0 8.1
2018-Feb-11 07:12N 38°35' W 090°12'0 0.4
2018-Feb-11 07:00N 38°35' W 090°12'0127.4
2018-Feb-11 07:00N 38°35' W 090°12'1 7.3
2018-Feb-11 06:49N 38°36' W 090°11'1 4.3
2018-Feb-11 06:30N 38°35' W 090°12'0120.1
2018-Feb-11 06:30N 38°35' W 090°12'1 2.9
2018-Feb-11 06:03N 38°36' W 090°11'118.4
2018-Feb-11 05:59N 38°35' W 090°12'121.5
2018-Feb-11 05:56N 38°36' W 090°11'1108.0
2018-Feb-11 05:55N 38°35' W 090°12'0 0.3
2018-Feb-11 05:30N 38°35' W 090°12'0 0.8
2018-Feb-11 05:28N 38°35' W 090°12'118.7
2018-Feb-11 05:25N 38°36' W 090°11'0 0.3
2018-Feb-11 05:07N 38°36' W 090°12'0 2.2
2018-Feb-11 05:00N 38°36' W 090°11'138.7
2018-Feb-11 04:58N 38°35' W 090°12'189.4
2018-Feb-11 04:57N 38°36' W 090°11'0 2.2
2018-Feb-11 04:52N 38°36' W 090°11'1 4.0
2018-Feb-11 04:30N 38°35' W 090°12'2214.3
2018-Feb-11 04:29N 38°37' W 090°11'1 1.8
2018-Feb-11 03:56N 38°36' W 090°12'049.3
2018-Feb-11 03:56N 38°35' W 090°12'1 1.0
2018-Feb-11 03:05N 38°36' W 090°11'0 2.3
2018-Feb-11 02:58N 38°36' W 090°11'0 0.1
2018-Feb-11 02:41N 38°36' W 090°11'1 5.5
2018-Feb-11 02:30N 38°37' W 090°11'2 3.5
2018-Feb-11 01:49N 38°35' W 090°12'1 0.2
2018-Feb-10 21:22N 38°34' W 090°13'0 0.0
2018-Feb-10 20:50N 38°35' W 090°13'1 2.5
2018-Feb-10 20:26N 38°35' W 090°12'0 0.0
2018-Feb-10 19:51N 38°35' W 090°12'0 0.2
2018-Feb-10 19:42N 38°35' W 090°12'0 0.1
2018-Feb-10 19:27N 38°35' W 090°12'0 0.1
2018-Feb-10 18:56N 38°35' W 090°12'0 0.0
2018-Feb-10 18:30N 38°35' W 090°12'010.9
2018-Feb-10 18:29N 38°35' W 090°12'0 0.9
2018-Feb-10 18:01N 38°35' W 090°12'170.6
2018-Feb-10 18:00N 38°36' W 090°11'1676.6
2018-Feb-10 18:00N 38°35' W 090°12'0 0.3
2018-Feb-10 17:46N 38°35' W 090°12'0 0.1
2018-Feb-10 17:35N 38°35' W 090°12'116.2
2018-Feb-10 17:30N 38°36' W 090°11'1497.1
2018-Feb-10 17:30N 38°35' W 090°12'0 6.8
2018-Feb-10 17:29N 38°35' W 090°12'0 0.3
2018-Feb-10 17:23N 38°35' W 090°12'3 6.8
2018-Feb-10 17:00N 38°37' W 090°11'0 0.5
2018-Feb-10 16:30N 38°37' W 090°11'0 0.6
2018-Feb-10 15:57N 38°37' W 090°11'1 1.1
2018-Feb-10 15:30N 38°37' W 090°11'213.3
2018-Feb-10 15:19N 38°35' W 090°12'0 0.3
2018-Feb-10 15:01N 38°35' W 090°12'016.5
2018-Feb-10 15:00N 38°35' W 090°12'2389.0
2018-Feb-10 15:00N 38°37' W 090°11'243.8
2018-Feb-10 14:57N 38°35' W 090°12'0 0.3
2018-Feb-10 14:29N 38°35' W 090°12'1 0.6
2018-Feb-10 13:09N 38°35' W 090°13'2 0.7
2018-Feb-10 10:43N 38°36' W 090°12'1 3.6
2018-Feb-10 10:26N 38°37' W 090°11'0 0.1
2018-Feb-10 09:57N 38°37' W 090°11'1 1.2
2018-Feb-10 09:29N 38°37' W 090°11'0 0.0
2018-Feb-10 08:57N 38°37' W 090°11'0 0.6
2018-Feb-10 08:30N 38°37' W 090°11'0 0.0
2018-Feb-10 08:00N 38°37' W 090°11'3 5.4
2018-Feb-10 07:26N 38°34' W 090°13'2 1.1
2018-Feb-10 05:23N 38°36' W 090°11'1 1.9
2018-Feb-10 05:00N 38°37' W 090°11'0 3.2
2018-Feb-10 04:54N 38°37' W 090°11'2 5.6
2018-Feb-10 04:30N 38°39' W 090°11'2 9.5
2018-Feb-10 04:15N 38°36' W 090°11'0 2.6
2018-Feb-10 04:05N 38°36' W 090°12'118.2
2018-Feb-10 04:00N 38°37' W 090°11'0 3.2
2018-Feb-10 03:56N 38°37' W 090°11'1 7.2
2018-Feb-10 03:50N 38°36' W 090°11'0 1.3
2018-Feb-10 03:33N 38°37' W 090°11'226.0
2018-Feb-10 03:29N 38°39' W 090°11'192.2
2018-Feb-10 03:28N 38°37' W 090°11'0 5.4
2018-Feb-10 03:24N 38°37' W 090°11'0 0.2
2018-Feb-10 03:12N 38°37' W 090°11'420.8
2018-Feb-10 03:00N 38°41' W 090°12'4926.1
2018-Feb-10 03:00N 38°37' W 090°11'1 3.1
2018-Feb-10 02:42N 38°36' W 090°11'524.3
2018-Feb-10 02:30N 38°41' W 090°12'51678.3
2018-Feb-10 02:30N 38°36' W 090°11'2 3.8
2018-Feb-10 02:00N 38°38' W 090°11'2 0.1
2018-Feb-09 09:00N 38°40' W 090°11'1 1.0
2018-Feb-09 07:30N 38°39' W 090°11'3 5.8
2018-Feb-09 07:00N 38°36' W 090°11'1 0.1
2018-Feb-08 22:00N 38°37' W 090°11'2 4.3
2018-Feb-08 21:30N 38°35' W 090°12'4 0.6
2018-Feb-08 15:00N 38°38' W 090°11'2 4.0
2018-Feb-08 14:30N 38°40' W 090°11'26499.3
2018-Feb-08 14:30N 38°39' W 090°11'1 2.8
2018-Feb-08 14:00N 38°37' W 090°11'12628.9
2018-Feb-08 14:00N 38°37' W 090°11'0 0.1
2018-Feb-08 10:00N 38°37' W 090°11'0 0.1
2018-Feb-08 09:30N 38°37' W 090°11'0 0.0
2018-Feb-08 08:00N 38°37' W 090°11'3 3.2
2018-Feb-08 07:00N 38°40' W 090°11'4 8.2
2018-Feb-08 06:30N 38°36' W 090°11'2 1.5
2018-Feb-08 05:30N 38°37' W 090°11'  
Track history (hours):
 
Tides and Currents Weather Stations Pressure Air Temp Water Temp Dewpoint Dewpoint Depression Visibility Wind Speed Wind Dir Waves Ship Positions

Wendy Ann

Owner: OSAGE MARINE SERVICES INC, SAINT LOUIS, MO. More information available from US FCC via Universal Licensing System.

Last reported at 2018-Feb-18 04:49 UTC. Time now 2018-Feb-18 05:22 UTC.
Position N 38°37' W 090°11'.

Type: Tug. MMSI: 338206593.

Date/timePositionNaut miles runAvg speedWind from/ knotsBaromVisibWave heightAir tempDewpointWater temp
2018-Feb-18 04:49N 38°37' W 090°11'0 0.7
2018-Feb-18 04:29N 38°37' W 090°11'017.1
2018-Feb-18 04:28N 38°37' W 090°11'1 1.1
2018-Feb-18 04:00N 38°36' W 090°11'2137.0
2018-Feb-18 04:00N 38°38' W 090°11'2 4.5
2018-Feb-18 03:30N 38°40' W 090°11'4286.4
2018-Feb-18 03:29N 38°36' W 090°11'2 3.9
2018-Feb-18 03:00N 38°38' W 090°11'2243.4
2018-Feb-18 03:00N 38°36' W 090°11'1 1.7
2018-Feb-18 02:30N 38°36' W 090°12'140.0
2018-Feb-18 02:28N 38°37' W 090°11'1 2.2
2018-Feb-18 02:00N 38°36' W 090°11'0 0.9
2018-Feb-18 01:28N 38°36' W 090°11'419.3
2018-Feb-18 01:14N 38°33' W 090°15'1 0.9
2018-Feb-18 00:25N 38°32' W 090°15'0 0.0
2018-Feb-17 23:50N 38°32' W 090°15'0 0.0
2018-Feb-17 23:29N 38°32' W 090°15'3 0.9
2018-Feb-17 19:26N 38°35' W 090°12'1 1.6
2018-Feb-17 18:49N 38°36' W 090°12'2 6.8
2018-Feb-17 18:30N 38°38' W 090°11'1 1.1
2018-Feb-17 18:00N 38°37' W 090°11'1 1.7
2018-Feb-17 17:20N 38°36' W 090°11'0 1.4
2018-Feb-17 17:00N 38°37' W 090°11'3 5.5
2018-Feb-17 16:30N 38°39' W 090°11'0 0.1
2018-Feb-17 15:59N 38°39' W 090°11'3 5.4
2018-Feb-17 15:27N 38°37' W 090°11'1 2.7
2018-Feb-17 15:00N 38°38' W 090°11'3 5.1
2018-Feb-17 14:30N 38°40' W 090°11'2 4.8
2018-Feb-17 14:00N 38°38' W 090°11'2 4.5
2018-Feb-17 13:30N 38°36' W 090°12'4 6.7
2018-Feb-17 12:59N 38°33' W 090°15'1 1.5
2018-Feb-17 12:23N 38°32' W 090°15'4 2.9
2018-Feb-17 11:02N 38°35' W 090°12'1 4.8
2018-Feb-17 10:54N 38°36' W 090°12'0 0.1
2018-Feb-17 09:57N 38°36' W 090°12'3 6.6
2018-Feb-17 09:30N 38°38' W 090°11'222.2
2018-Feb-17 09:25N 38°36' W 090°11'0 1.2
2018-Feb-17 09:06N 38°36' W 090°11'1 8.2
2018-Feb-17 08:59N 38°37' W 090°11'027.9
2018-Feb-17 08:58N 38°37' W 090°11'137.8
2018-Feb-17 08:56N 38°36' W 090°11'0 0.2
2018-Feb-17 08:29N 38°36' W 090°11'0119.9
2018-Feb-17 08:29N 38°36' W 090°11'1 2.6
2018-Feb-17 08:00N 38°35' W 090°12'2 3.5
2018-Feb-17 07:26N 38°37' W 090°11'0 2.7
2018-Feb-17 07:19N 38°36' W 090°11'1 1.4
2018-Feb-17 06:55N 38°37' W 090°11'1 7.8
2018-Feb-17 06:49N 38°36' W 090°11'2 8.0
2018-Feb-17 06:30N 38°39' W 090°11'311.7
2018-Feb-17 06:17N 38°36' W 090°11'1 3.6
2018-Feb-17 05:59N 38°37' W 090°11'031.2
2018-Feb-17 05:58N 38°37' W 090°11'3 6.3
2018-Feb-17 05:30N 38°40' W 090°11'0 0.3
2018-Feb-17 04:59N 38°40' W 090°11'0 0.8
2018-Feb-17 04:30N 38°40' W 090°11'3 9.3
2018-Feb-17 04:09N 38°37' W 090°11'0 0.0
2018-Feb-17 04:00N 38°37' W 090°11'2 3.5
2018-Feb-17 03:28N 38°38' W 090°11'4 7.9
2018-Feb-17 02:59N 38°35' W 090°12'5150.5
2018-Feb-17 02:57N 38°40' W 090°11'414.1
2018-Feb-17 02:40N 38°36' W 090°11'0 0.0
2018-Feb-17 02:30N 38°36' W 090°11'31296.6
2018-Feb-17 02:30N 38°39' W 090°11'2 4.1
2018-Feb-17 02:00N 38°37' W 090°11'1 6.2
2018-Feb-17 01:48N 38°36' W 090°11'0 0.8
2018-Feb-17 01:26N 38°36' W 090°12'4 3.0
2018-Feb-16 23:55N 38°32' W 090°15'5 4.6
2018-Feb-16 22:53N 38°36' W 090°11'0 5.5
2018-Feb-16 22:52N 38°36' W 090°11'1 6.1
2018-Feb-16 22:41N 38°35' W 090°12'0 0.2
2018-Feb-16 22:30N 38°35' W 090°12'247.5
2018-Feb-16 22:27N 38°37' W 090°11'1252.3
2018-Feb-16 22:27N 38°38' W 090°11'2 3.9
2018-Feb-16 22:00N 38°36' W 090°11'122.2
2018-Feb-16 21:58N 38°37' W 090°11'495.5
2018-Feb-16 21:56N 38°40' W 090°11'3 5.4
2018-Feb-16 21:27N 38°38' W 090°11'3859.9
2018-Feb-16 21:27N 38°35' W 090°12'0 0.0
2018-Feb-16 21:00N 38°35' W 090°12'0 0.5
2018-Feb-16 20:49N 38°35' W 090°12'0 1.1
2018-Feb-16 20:25N 38°35' W 090°12'0 4.5
2018-Feb-16 20:20N 38°35' W 090°12'0 0.2
2018-Feb-16 19:58N 38°35' W 090°12'3 5.8
2018-Feb-16 19:28N 38°38' W 090°11'3 6.8
2018-Feb-16 19:00N 38°41' W 090°11'3 2.9
2018-Feb-16 18:09N 38°38' W 090°11'1 5.6
2018-Feb-16 18:00N 38°37' W 090°11'353.1
2018-Feb-16 17:56N 38°35' W 090°13'1 1.9
2018-Feb-16 17:27N 38°35' W 090°12'1 3.2
2018-Feb-16 17:07N 38°34' W 090°13'0 0.1
2018-Feb-16 16:48N 38°34' W 090°13'254.7
2018-Feb-16 16:46N 38°36' W 090°11'1 5.0
2018-Feb-16 16:30N 38°37' W 090°11'1 1.0
2018-Feb-16 15:17N 38°36' W 090°11'1 2.1
2018-Feb-16 14:59N 38°36' W 090°12'2152.5
2018-Feb-16 14:59N 38°35' W 090°13'1 1.4
2018-Feb-16 14:33N 38°35' W 090°12'0 0.0
2018-Feb-16 14:30N 38°35' W 090°12'0 0.2
2018-Feb-16 14:19N 38°35' W 090°12'0 0.4
2018-Feb-16 14:00N 38°35' W 090°12'314.9
2018-Feb-16 13:50N 38°37' W 090°11'1 1.8
2018-Feb-16 13:30N 38°38' W 090°11'3 6.1
2018-Feb-16 12:59N 38°35' W 090°12'0 0.1
2018-Feb-16 11:23N 38°35' W 090°12'1 4.5
2018-Feb-16 11:06N 38°34' W 090°14'113.2
2018-Feb-16 11:00N 38°35' W 090°12'1 2.4
2018-Feb-16 10:37N 38°36' W 090°12'213.4
2018-Feb-16 10:30N 38°37' W 090°11'014.6
2018-Feb-16 10:28N 38°37' W 090°11'2 3.7
2018-Feb-16 10:00N 38°39' W 090°11'2520.4
2018-Feb-16 10:00N 38°41' W 090°11'512.8
2018-Feb-16 09:38N 38°36' W 090°11'436.6
2018-Feb-16 09:30N 38°40' W 090°11'420.5
2018-Feb-16 09:18N 38°36' W 090°11'0 0.6
2018-Feb-16 09:00N 38°36' W 090°11'1303.6
2018-Feb-16 09:00N 38°37' W 090°11'2 9.4
2018-Feb-16 08:45N 38°35' W 090°12'1 4.5
2018-Feb-16 08:30N 38°36' W 090°11'0 6.3
2018-Feb-16 08:27N 38°36' W 090°12'0 2.2
2018-Feb-16 08:13N 38°36' W 090°11'1 5.3
2018-Feb-16 08:00N 38°35' W 090°12'2 3.5
2018-Feb-16 07:32N 38°37' W 090°11'010.7
2018-Feb-16 07:29N 38°36' W 090°11'113.3
2018-Feb-16 07:26N 38°37' W 090°11'236.6
2018-Feb-16 07:22N 38°35' W 090°12'513.1
2018-Feb-16 07:00N 38°40' W 090°11'0 9.3
2018-Feb-16 06:59N 38°40' W 090°11'3107.1
2018-Feb-16 06:57N 38°36' W 090°11'4 8.7
2018-Feb-16 06:30N 38°40' W 090°11'237.5
2018-Feb-16 06:28N 38°39' W 090°11'2184.0
2018-Feb-16 06:27N 38°41' W 090°12'1 2.1
2018-Feb-16 06:00N 38°40' W 090°11'2107.0
2018-Feb-16 05:59N 38°38' W 090°11'31398.0
2018-Feb-16 05:59N 38°41' W 090°12'1 2.2
2018-Feb-16 05:30N 38°40' W 090°11'195.6
2018-Feb-16 05:30N 38°39' W 090°11'338.7
2018-Feb-16 05:25N 38°36' W 090°11'3 8.2
2018-Feb-16 05:00N 38°39' W 090°11'2276.5
2018-Feb-16 05:00N 38°37' W 090°11'1 6.8
2018-Feb-16 04:53N 38°37' W 090°11'0 1.0
2018-Feb-16 04:30N 38°36' W 090°11'013.7
2018-Feb-16 04:28N 38°37' W 090°11'1 1.5
2018-Feb-16 04:00N 38°37' W 090°11'132.0
2018-Feb-16 03:59N 38°37' W 090°11'0 0.1
2018-Feb-16 03:30N 38°37' W 090°11'154.4
2018-Feb-16 03:29N 38°36' W 090°11'0 0.1
2018-Feb-16 03:00N 38°36' W 090°11'2 9.5
2018-Feb-16 02:48N 38°35' W 090°13'2 7.7
2018-Feb-16 02:30N 38°36' W 090°11'0 1.0
2018-Feb-16 02:20N 38°36' W 090°11'2 4.8
2018-Feb-16 01:59N 38°38' W 090°11'4 1.1
2018-Feb-15 22:21N 38°34' W 090°13'1 8.5
2018-Feb-15 22:15N 38°35' W 090°12'0 0.3
2018-Feb-15 21:59N 38°35' W 090°12'0 1.2
2018-Feb-15 21:56N 38°35' W 090°12'1 2.3
2018-Feb-15 21:30N 38°36' W 090°12'4 7.8
2018-Feb-15 21:00N 38°40' W 090°11'4361.6
2018-Feb-15 20:59N 38°36' W 090°12'5 8.7
2018-Feb-15 20:26N 38°41' W 090°11'3 6.1
2018-Feb-15 20:00N 38°38' W 090°11'4 5.1
2018-Feb-15 19:14N 38°35' W 090°13'0 0.3
2018-Feb-15 18:54N 38°35' W 090°13'284.0
2018-Feb-15 18:53N 38°36' W 090°11'3 7.3
2018-Feb-15 18:30N 38°39' W 090°11'1 1.8
2018-Feb-15 18:00N 38°40' W 090°11'543.7
2018-Feb-15 17:53N 38°35' W 090°13'3 7.0
2018-Feb-15 17:25N 38°38' W 090°11'374.9
2018-Feb-15 17:22N 38°35' W 090°13'0 1.0
2018-Feb-15 16:55N 38°35' W 090°13'0 0.8
2018-Feb-15 16:37N 38°35' W 090°12'212.2
2018-Feb-15 16:29N 38°37' W 090°11'0 4.6
2018-Feb-15 16:24N 38°36' W 090°11'0 5.6
2018-Feb-15 16:20N 38°37' W 090°11'3 8.6
2018-Feb-15 16:00N 38°39' W 090°11'3491.5
2018-Feb-15 16:00N 38°37' W 090°11'4 8.9
2018-Feb-15 15:30N 38°41' W 090°12'5349.7
2018-Feb-15 15:30N 38°36' W 090°11'140.1
2018-Feb-15 15:29N 38°37' W 090°11'2 5.1
2018-Feb-15 14:59N 38°39' W 090°11'4854.1
2018-Feb-15 14:59N 38°35' W 090°12'3765.8
2018-Feb-15 14:59N 38°39' W 090°11'1 2.1
2018-Feb-15 14:29N 38°38' W 090°11'1 2.5
2018-Feb-15 13:59N 38°36' W 090°11'2108.0
2018-Feb-15 13:58N 38°35' W 090°13'3 2.0
2018-Feb-15 12:30N 38°32' W 090°15'4 0.3
2018-Feb-14 22:44N 38°35' W 090°12'1 7.8
2018-Feb-14 22:38N 38°35' W 090°13'1 4.0
2018-Feb-14 22:24N 38°35' W 090°12'1 6.4
2018-Feb-14 22:16N 38°36' W 090°11'0 1.1
2018-Feb-14 22:06N 38°36' W 090°12'0 1.0
2018-Feb-14 22:03N 38°36' W 090°11'0 4.6
2018-Feb-14 22:00N 38°36' W 090°11'0336.6
2018-Feb-14 22:00N 38°36' W 090°11'13805.3
2018-Feb-14 22:00N 38°37' W 090°11'033.9
2018-Feb-14 22:00N 38°37' W 090°11'2 2.9
2018-Feb-14 21:29N 38°36' W 090°11'175.5
2018-Feb-14 21:28N 38°35' W 090°12'1 3.0
2018-Feb-14 21:05N 38°36' W 090°11'0 1.4
2018-Feb-14 20:52N 38°36' W 090°11'0 1.9
2018-Feb-14 20:50N 38°36' W 090°11'214.9
2018-Feb-14 20:41N 38°34' W 090°13'0 0.7
2018-Feb-14 20:29N 38°34' W 090°13'1 4.7
2018-Feb-14 20:18N 38°35' W 090°12'1 4.0
2018-Feb-14 20:00N 38°36' W 090°11'164.0
2018-Feb-14 19:59N 38°35' W 090°12'2 3.7
2018-Feb-14 19:30N 38°37' W 090°11'1 1.6
2018-Feb-14 18:54N 38°37' W 090°11'3 7.9
2018-Feb-14 18:32N 38°35' W 090°13'210.1
2018-Feb-14 18:22N 38°36' W 090°11'0 2.0
2018-Feb-14 18:12N 38°37' W 090°11'0 0.3
2018-Feb-14 18:00N 38°37' W 090°11'1 2.0
2018-Feb-14 17:36N 38°36' W 090°12'1 7.8
2018-Feb-14 17:27N 38°37' W 090°11'0 5.3
2018-Feb-14 17:24N 38°37' W 090°11'1 3.5
2018-Feb-14 17:00N 38°39' W 090°11'2382.3
2018-Feb-14 17:00N 38°37' W 090°11'349.6
2018-Feb-14 16:56N 38°34' W 090°14'3 5.5
2018-Feb-14 16:29N 38°36' W 090°11'256.6
2018-Feb-14 16:26N 38°34' W 090°13'0 0.9
2018-Feb-14 15:59N 38°35' W 090°13'312.7
2018-Feb-14 15:46N 38°37' W 090°11'0 0.5
2018-Feb-14 15:30N 38°37' W 090°11'3219.9
2018-Feb-14 15:29N 38°34' W 090°13'0 0.0
2018-Feb-14 14:58N 38°34' W 090°13'0 0.2
2018-Feb-14 14:15N 38°35' W 090°13'2 0.4
2018-Feb-14 09:37N 38°36' W 090°12'1 9.9
2018-Feb-14 09:30N 38°37' W 090°11'1 1.2
2018-Feb-14 08:56N 38°36' W 090°11'1 3.3
2018-Feb-14 08:47N 38°37' W 090°11'0 0.3
2018-Feb-14 08:30N 38°37' W 090°11'0 1.2
2018-Feb-14 08:25N 38°37' W 090°11'0 0.2
2018-Feb-14 08:00N 38°37' W 090°11'0 0.3
2018-Feb-14 07:46N 38°37' W 090°11'0 0.9
2018-Feb-14 07:37N 38°37' W 090°11'0 2.9
2018-Feb-14 07:30N 38°37' W 090°11'0 1.9
2018-Feb-14 07:21N 38°37' W 090°11'0 2.3
2018-Feb-14 07:13N 38°37' W 090°11'0 0.5
2018-Feb-14 06:58N 38°37' W 090°11'214.6
2018-Feb-14 06:50N 38°35' W 090°12'240.7
2018-Feb-14 06:47N 38°37' W 090°11'0 0.0
2018-Feb-14 06:30N 38°37' W 090°11'010.4
2018-Feb-14 06:30N 38°37' W 090°11'349.5
2018-Feb-14 06:26N 38°35' W 090°13'0 0.6
2018-Feb-14 05:56N 38°34' W 090°13'1 2.3
2018-Feb-14 05:19N 38°35' W 090°12'2 4.1
2018-Feb-14 04:52N 38°37' W 090°11'013.8
2018-Feb-14 04:50N 38°36' W 090°11'1 1.8
2018-Feb-14 04:30N 38°37' W 090°11'2113.6
2018-Feb-14 04:29N 38°39' W 090°11'1 2.0
2018-Feb-14 04:00N 38°40' W 090°11'3342.0
2018-Feb-14 04:00N 38°37' W 090°11'213.2
2018-Feb-14 03:52N 38°35' W 090°12'2 4.7
2018-Feb-14 03:29N 38°37' W 090°11'115.5
2018-Feb-14 03:26N 38°38' W 090°11'3 5.1
2018-Feb-14 02:52N 38°35' W 090°12'2146.5
2018-Feb-14 02:51N 38°37' W 090°11'0 1.3
2018-Feb-14 02:48N 38°37' W 090°11'1 1.2
2018-Feb-14 02:20N 38°36' W 090°11'1 2.6
2018-Feb-14 02:00N 38°37' W 090°11'1 2.6
2018-Feb-14 01:30N 38°36' W 090°11'1 0.2
2018-Feb-13 22:29N 38°36' W 090°11'1 1.6
2018-Feb-13 22:02N 38°37' W 090°11'0 7.2
2018-Feb-13 22:00N 38°37' W 090°11'1 8.4
2018-Feb-13 21:54N 38°36' W 090°11'2 5.7
2018-Feb-13 21:30N 38°35' W 090°13'2 2.9
2018-Feb-13 20:52N 38°36' W 090°12'152.4
2018-Feb-13 20:51N 38°37' W 090°11'2 5.1
2018-Feb-13 20:22N 38°35' W 090°12'3 6.5
2018-Feb-13 19:54N 38°38' W 090°11'2285.8
2018-Feb-13 19:54N 38°36' W 090°11'1 1.7
2018-Feb-13 19:11N 38°37' W 090°11'1 3.3
2018-Feb-13 19:00N 38°37' W 090°11'014.6
2018-Feb-13 18:59N 38°37' W 090°11'1 1.4
2018-Feb-13 18:33N 38°36' W 090°11'441.5
2018-Feb-13 18:27N 38°40' W 090°11'4287.9
2018-Feb-13 18:26N 38°36' W 090°11'3 7.4
2018-Feb-13 18:00N 38°39' W 090°11'413.5
2018-Feb-13 17:41N 38°35' W 090°12'0 1.1
2018-Feb-13 17:31N 38°35' W 090°12'0 2.3
2018-Feb-13 17:30N 38°35' W 090°12'2877.6
2018-Feb-13 17:30N 38°37' W 090°11'21636.4
2018-Feb-13 17:30N 38°35' W 090°12'312.2
2018-Feb-13 17:16N 38°38' W 090°11'2 7.9
2018-Feb-13 17:00N 38°36' W 090°12'157.3
2018-Feb-13 16:59N 38°36' W 090°11'2271.7
2018-Feb-13 16:59N 38°39' W 090°11'1 2.2
2018-Feb-13 16:28N 38°37' W 090°11'3 7.9
2018-Feb-13 16:03N 38°35' W 090°13'241.8
2018-Feb-13 16:00N 38°36' W 090°12'218.3
2018-Feb-13 15:54N 38°35' W 090°13'0 0.7
2018-Feb-13 15:44N 38°34' W 090°13'0 0.2
2018-Feb-13 15:29N 38°35' W 090°13'114.4
2018-Feb-13 15:23N 38°36' W 090°12'0 1.3
2018-Feb-13 15:07N 38°36' W 090°12'1 6.3
2018-Feb-13 14:57N 38°35' W 090°12'211.8
2018-Feb-13 14:46N 38°37' W 090°11'111.7
2018-Feb-13 14:41N 38°36' W 090°11'1 5.7
2018-Feb-13 14:30N 38°37' W 090°11'0260.4
2018-Feb-13 14:30N 38°37' W 090°11'1372.0
2018-Feb-13 14:30N 38°36' W 090°11'3 5.3
2018-Feb-13 14:01N 38°39' W 090°11'232.9
2018-Feb-13 13:56N 38°36' W 090°11'118.5
2018-Feb-13 13:54N 38°37' W 090°11'0 2.6
2018-Feb-13 13:48N 38°37' W 090°11'1 1.5
2018-Feb-13 13:22N 38°36' W 090°12'1 0.5
2018-Feb-13 11:03N 38°35' W 090°12'0 0.0
2018-Feb-13 10:59N 38°35' W 090°12'1 7.1
2018-Feb-13 10:47N 38°36' W 090°11'1 4.1
2018-Feb-13 10:25N 38°35' W 090°12'312.6
2018-Feb-13 10:13N 38°37' W 090°11'1 5.7
2018-Feb-13 10:00N 38°39' W 090°11'445.8
2018-Feb-13 09:55N 38°35' W 090°12'112.3
2018-Feb-13 09:48N 38°36' W 090°11'1 7.8
2018-Feb-13 09:40N 38°35' W 090°12'0 2.2
2018-Feb-13 09:30N 38°35' W 090°12'22660.0
2018-Feb-13 09:30N 38°37' W 090°11'241.3
2018-Feb-13 09:28N 38°39' W 090°11'245.0
2018-Feb-13 09:26N 38°37' W 090°11'1 1.3
2018-Feb-13 09:00N 38°37' W 090°11'0 5.0
2018-Feb-13 08:57N 38°37' W 090°11'264.9
2018-Feb-13 08:55N 38°35' W 090°12'0 0.1
2018-Feb-13 08:29N 38°35' W 090°12'2 4.0
2018-Feb-13 08:06N 38°36' W 090°11'0 3.4
2018-Feb-13 07:58N 38°36' W 090°12'1 2.9
2018-Feb-13 07:32N 38°37' W 090°11'0 9.3
2018-Feb-13 07:30N 38°37' W 090°11'1250.5
2018-Feb-13 07:30N 38°39' W 090°11'511.2
2018-Feb-13 07:05N 38°34' W 090°13'453.3
2018-Feb-13 07:00N 38°38' W 090°11'499.3
2018-Feb-13 06:58N 38°34' W 090°13'3114.2
2018-Feb-13 06:56N 38°37' W 090°11'0 0.4
2018-Feb-13 06:30N 38°37' W 090°11'132.7
2018-Feb-13 06:28N 38°36' W 090°11'1 2.3
2018-Feb-13 06:00N 38°37' W 090°11'0 0.3
2018-Feb-13 05:41N 38°37' W 090°11'211.9
2018-Feb-13 05:30N 38°39' W 090°11'443.6
2018-Feb-13 05:24N 38°35' W 090°12'513.3
2018-Feb-13 05:00N 38°40' W 090°11'521.4
2018-Feb-13 04:48N 38°36' W 090°12'3 9.2
2018-Feb-13 04:29N 38°39' W 090°11'114.0
2018-Feb-13 04:25N 38°38' W 090°11'0 0.3
2018-Feb-13 04:00N 38°37' W 090°11'1 1.5
2018-Feb-13 03:36N 38°37' W 090°11'0 1.5
2018-Feb-13 03:30N 38°37' W 090°11'148.3
2018-Feb-13 03:29N 38°36' W 090°11'1 1.7
2018-Feb-13 03:00N 38°37' W 090°11'295.7
2018-Feb-13 02:58N 38°35' W 090°12'2 5.2
2018-Feb-13 02:30N 38°37' W 090°11'2 6.5
2018-Feb-13 02:07N 38°35' W 090°12'327.8
2018-Feb-13 02:00N 38°38' W 090°11'215.8
2018-Feb-13 01:52N 38°36' W 090°11'0 0.6
2018-Feb-13 01:40N 38°36' W 090°11'0 0.7
2018-Feb-13 01:28N 38°36' W 090°11'111.9
2018-Feb-13 01:26N 38°36' W 090°12'1 0.3
2018-Feb-12 20:40N 38°37' W 090°11'181.2
2018-Feb-12 20:39N 38°36' W 090°11'0 0.1
2018-Feb-12 20:30N 38°36' W 090°11'065.3
2018-Feb-12 20:30N 38°36' W 090°11'282.8
2018-Feb-12 20:28N 38°39' W 090°11'410.6
2018-Feb-12 20:07N 38°35' W 090°12'222.6
2018-Feb-12 20:01N 38°37' W 090°11'2235.6
2018-Feb-12 20:00N 38°35' W 090°12'212.6
2018-Feb-12 19:52N 38°36' W 090°11'1 1.6
2018-Feb-12 19:31N 38°37' W 090°11'1 1.5
2018-Feb-12 19:06N 38°36' W 090°11'0 4.5
2018-Feb-12 19:00N 38°37' W 090°11'117.7
2018-Feb-12 18:58N 38°36' W 090°11'0 0.9
2018-Feb-12 18:30N 38°36' W 090°12'2 3.2
2018-Feb-12 17:59N 38°35' W 090°13'1150.5
2018-Feb-12 17:59N 38°35' W 090°12'1 2.3
2018-Feb-12 17:30N 38°36' W 090°11'111.1
2018-Feb-12 17:24N 38°37' W 090°11'1 1.9
2018-Feb-12 16:58N 38°36' W 090°11'1145.5
2018-Feb-12 16:57N 38°37' W 090°11'21049.8
2018-Feb-12 16:57N 38°35' W 090°12'3 7.8
2018-Feb-12 16:30N 38°39' W 090°11'545.5
2018-Feb-12 16:24N 38°34' W 090°13'3 7.8
2018-Feb-12 16:00N 38°37' W 090°11'1 0.8
2018-Feb-12 15:18N 38°36' W 090°11'0 4.8
2018-Feb-12 15:14N 38°36' W 090°11'0 0.9
2018-Feb-12 14:43N 38°36' W 090°12'1 4.8
2018-Feb-12 14:31N 38°35' W 090°12'1 2.6
2018-Feb-12 14:01N 38°36' W 090°11'5 1.1
2018-Feb-12 09:45N 38°32' W 090°15'4 8.5
2018-Feb-12 09:16N 38°36' W 090°12'2 8.9
2018-Feb-12 09:01N 38°38' W 090°11'0 8.3
2018-Feb-12 08:59N 38°38' W 090°11'2 8.7
2018-Feb-12 08:49N 38°40' W 090°11'0 0.7
2018-Feb-12 08:30N 38°40' W 090°11'028.6
2018-Feb-12 08:30N 38°39' W 090°11'3 5.4
2018-Feb-12 07:59N 38°37' W 090°11'1 2.1
2018-Feb-12 07:26N 38°36' W 090°12'114.0
2018-Feb-12 07:22N 38°37' W 090°11'018.5
2018-Feb-12 07:20N 38°36' W 090°11'0 0.3
2018-Feb-12 07:00N 38°36' W 090°11'157.1
2018-Feb-12 06:59N 38°36' W 090°12'1 0.6
2018-Feb-12 05:59N 38°36' W 090°11'0 0.3
2018-Feb-12 05:24N 38°36' W 090°11'0 0.5
2018-Feb-12 04:54N 38°36' W 090°12'0 0.3
2018-Feb-12 04:28N 38°36' W 090°11'0 0.0
2018-Feb-12 03:16N 38°36' W 090°11'4122.9
2018-Feb-12 03:13N 38°33' W 090°15'419.3
2018-Feb-12 03:00N 38°36' W 090°11'1 3.8
2018-Feb-12 02:39N 38°35' W 090°13'1 5.3
2018-Feb-12 02:30N 38°36' W 090°12'0 1.3
2018-Feb-12 02:09N 38°36' W 090°11'1 2.3
2018-Feb-12 01:51N 38°37' W 090°11'2 4.5
2018-Feb-12 01:30N 38°35' W 090°12'3 0.9
2018-Feb-11 22:09N 38°33' W 090°15'2 4.7
2018-Feb-11 21:48N 38°34' W 090°14'214.2
2018-Feb-11 21:40N 38°36' W 090°12'0 1.1
2018-Feb-11 21:29N 38°36' W 090°12'1649.1
2018-Feb-11 21:29N 38°35' W 090°13'2115.1
2018-Feb-11 21:28N 38°37' W 090°11'0 1.0
2018-Feb-11 21:00N 38°36' W 090°11'0 2.9
2018-Feb-11 20:51N 38°37' W 090°11'0 2.6
2018-Feb-11 20:47N 38°37' W 090°11'1 2.0
2018-Feb-11 20:30N 38°36' W 090°11'049.9
2018-Feb-11 20:30N 38°36' W 090°11'0 0.2
2018-Feb-11 20:24N 38°36' W 090°11'0 0.2
2018-Feb-11 20:01N 38°36' W 090°11'014.8
2018-Feb-11 20:00N 38°36' W 090°11'0 6.5
2018-Feb-11 20:00N 38°36' W 090°11'0 0.2
2018-Feb-11 19:30N 38°36' W 090°11'0 9.1
2018-Feb-11 19:30N 38°36' W 090°11'1228.0
2018-Feb-11 19:30N 38°35' W 090°13'2 2.2
2018-Feb-11 18:39N 38°36' W 090°11'0 2.3
2018-Feb-11 18:27N 38°37' W 090°11'3 1.0
2018-Feb-11 15:19N 38°34' W 090°13'1 3.4
2018-Feb-11 15:00N 38°35' W 090°12'1 2.2
2018-Feb-11 14:28N 38°36' W 090°11'1 2.2
2018-Feb-11 14:00N 38°37' W 090°11'1 2.8
2018-Feb-11 13:29N 38°36' W 090°12'1 0.1
2018-Feb-11 09:40N 38°35' W 090°12'0 1.9
2018-Feb-11 09:40N 38°35' W 090°12'0 0.9
2018-Feb-11 09:30N 38°35' W 090°12'014.5
2018-Feb-11 09:30N 38°35' W 090°12'0 0.3
2018-Feb-11 09:00N 38°35' W 090°12'0 0.2
2018-Feb-11 08:50N 38°35' W 090°12'0 0.3
2018-Feb-11 08:30N 38°35' W 090°12'234.5
2018-Feb-11 08:27N 38°37' W 090°11'2 4.8
2018-Feb-11 08:04N 38°35' W 090°12'0 0.4
2018-Feb-11 08:00N 38°35' W 090°12'0 2.2
2018-Feb-11 07:58N 38°35' W 090°12'0 0.2
2018-Feb-11 07:30N 38°35' W 090°12'0 0.6
2018-Feb-11 07:13N 38°35' W 090°12'0 8.1
2018-Feb-11 07:12N 38°35' W 090°12'0 0.4
2018-Feb-11 07:00N 38°35' W 090°12'0127.4
2018-Feb-11 07:00N 38°35' W 090°12'1 7.3
2018-Feb-11 06:49N 38°36' W 090°11'1 4.3
2018-Feb-11 06:30N 38°35' W 090°12'0120.1
2018-Feb-11 06:30N 38°35' W 090°12'1 2.9
2018-Feb-11 06:03N 38°36' W 090°11'118.4
2018-Feb-11 05:59N 38°35' W 090°12'121.5
2018-Feb-11 05:56N 38°36' W 090°11'1108.0
2018-Feb-11 05:55N 38°35' W 090°12'0 0.3
2018-Feb-11 05:30N 38°35' W 090°12'0 0.8
2018-Feb-11 05:28N 38°35' W 090°12'118.7
2018-Feb-11 05:25N 38°36' W 090°11'0 0.3
2018-Feb-11 05:07N 38°36' W 090°12'0 2.2
2018-Feb-11 05:00N 38°36' W 090°11'138.7
2018-Feb-11 04:58N 38°35' W 090°12'189.4
2018-Feb-11 04:57N 38°36' W 090°11'0 2.2
2018-Feb-11 04:52N 38°36' W 090°11'1 4.0
2018-Feb-11 04:30N 38°35' W 090°12'2214.3
2018-Feb-11 04:29N 38°37' W 090°11'1 1.8
2018-Feb-11 03:56N 38°36' W 090°12'049.3
2018-Feb-11 03:56N 38°35' W 090°12'1 1.0
2018-Feb-11 03:05N 38°36' W 090°11'0 2.3
2018-Feb-11 02:58N 38°36' W 090°11'0 0.1
2018-Feb-11 02:41N 38°36' W 090°11'1 5.5
2018-Feb-11 02:30N 38°37' W 090°11'2 3.5
2018-Feb-11 01:49N 38°35' W 090°12'1 0.2
2018-Feb-10 21:22N 38°34' W 090°13'0 0.0
2018-Feb-10 20:50N 38°35' W 090°13'1 2.5
2018-Feb-10 20:26N 38°35' W 090°12'0 0.0
2018-Feb-10 19:51N 38°35' W 090°12'0 0.2
2018-Feb-10 19:42N 38°35' W 090°12'0 0.1
2018-Feb-10 19:27N 38°35' W 090°12'0 0.1
2018-Feb-10 18:56N 38°35' W 090°12'0 0.0
2018-Feb-10 18:30N 38°35' W 090°12'010.9
2018-Feb-10 18:29N 38°35' W 090°12'0 0.9
2018-Feb-10 18:01N 38°35' W 090°12'170.6
2018-Feb-10 18:00N 38°36' W 090°11'1676.6
2018-Feb-10 18:00N 38°35' W 090°12'0 0.3
2018-Feb-10 17:46N 38°35' W 090°12'0 0.1
2018-Feb-10 17:35N 38°35' W 090°12'116.2
2018-Feb-10 17:30N 38°36' W 090°11'1497.1
2018-Feb-10 17:30N 38°35' W 090°12'0 6.8
2018-Feb-10 17:29N 38°35' W 090°12'0 0.3
2018-Feb-10 17:23N 38°35' W 090°12'3 6.8
2018-Feb-10 17:00N 38°37' W 090°11'0 0.5
2018-Feb-10 16:30N 38°37' W 090°11'0 0.6
2018-Feb-10 15:57N 38°37' W 090°11'1 1.1
2018-Feb-10 15:30N 38°37' W 090°11'213.3
2018-Feb-10 15:19N 38°35' W 090°12'0 0.3
2018-Feb-10 15:01N 38°35' W 090°12'016.5
2018-Feb-10 15:00N 38°35' W 090°12'2389.0
2018-Feb-10 15:00N 38°37' W 090°11'243.8
2018-Feb-10 14:57N 38°35' W 090°12'0 0.3
2018-Feb-10 14:29N 38°35' W 090°12'1 0.6
2018-Feb-10 13:09N 38°35' W 090°13'2 0.7
2018-Feb-10 10:43N 38°36' W 090°12'1 3.6
2018-Feb-10 10:26N 38°37' W 090°11'0 0.1
2018-Feb-10 09:57N 38°37' W 090°11'1 1.2
2018-Feb-10 09:29N 38°37' W 090°11'0 0.0
2018-Feb-10 08:57N 38°37' W 090°11'0 0.6
2018-Feb-10 08:30N 38°37' W 090°11'0 0.0
2018-Feb-10 08:00N 38°37' W 090°11'3 5.4
2018-Feb-10 07:26N 38°34' W 090°13'2 1.1
2018-Feb-10 05:23N 38°36' W 090°11'1 1.9
2018-Feb-10 05:00N 38°37' W 090°11'0 3.2
2018-Feb-10 04:54N 38°37' W 090°11'2 5.6
2018-Feb-10 04:30N 38°39' W 090°11'2 9.5
2018-Feb-10 04:15N 38°36' W 090°11'0 2.6
2018-Feb-10 04:05N 38°36' W 090°12'118.2
2018-Feb-10 04:00N 38°37' W 090°11'0 3.2
2018-Feb-10 03:56N 38°37' W 090°11'1 7.2
2018-Feb-10 03:50N 38°36' W 090°11'0 1.3
2018-Feb-10 03:33N 38°37' W 090°11'226.0
2018-Feb-10 03:29N 38°39' W 090°11'192.2
2018-Feb-10 03:28N 38°37' W 090°11'0 5.4
2018-Feb-10 03:24N 38°37' W 090°11'0 0.2
2018-Feb-10 03:12N 38°37' W 090°11'420.8
2018-Feb-10 03:00N 38°41' W 090°12'4926.1
2018-Feb-10 03:00N 38°37' W 090°11'1 3.1
2018-Feb-10 02:42N 38°36' W 090°11'524.3
2018-Feb-10 02:30N 38°41' W 090°12'51678.3
2018-Feb-10 02:30N 38°36' W 090°11'2 3.8
2018-Feb-10 02:00N 38°38' W 090°11'2 0.1
2018-Feb-09 09:00N 38°40' W 090°11'1 1.0
2018-Feb-09 07:30N 38°39' W 090°11'3 5.8
2018-Feb-09 07:00N 38°36' W 090°11'1 0.1
2018-Feb-08 22:00N 38°37' W 090°11'2 4.3
2018-Feb-08 21:30N 38°35' W 090°12'4 0.6
2018-Feb-08 15:00N 38°38' W 090°11'2 4.0
2018-Feb-08 14:30N 38°40' W 090°11'26499.3
2018-Feb-08 14:30N 38°39' W 090°11'1 2.8
2018-Feb-08 14:00N 38°37' W 090°11'12628.9
2018-Feb-08 14:00N 38°37' W 090°11'0 0.1
2018-Feb-08 10:00N 38°37' W 090°11'0 0.1
2018-Feb-08 09:30N 38°37' W 090°11'0 0.0
2018-Feb-08 08:00N 38°37' W 090°11'3 3.2
2018-Feb-08 07:00N 38°40' W 090°11'4 8.2
2018-Feb-08 06:30N 38°36' W 090°11'2 1.5
2018-Feb-08 05:30N 38°37' W 090°11'  

Dump ship's entire track history